Марковские Форумы Ижевск
  Шины, диски рейтинг авторов
 
Имя:
Пароль:
 зарегистрироваться | Войти через
напоминатель пароля
mark.ru
Автозапчасти
НОВАЯ ТЕМА   правила | поиск | картинки | | | | о форуме |
  Новости | Авто | Недвижимость | Работа | Бизнес | Стройка | Объявления | Совместная покупка | | |
 
показывать темы:
Куплю зиму 1956515 Чирик 10:17
куплю шину ko5tja 07:00
Куплю Nokian Hakka Green, 17570 R13 duha-1 18-08 23:25
продам 1шт диск р14 4х100 500р ЮрийАлексеевич 18-08 21:32
4 колеса р16 5х100 15000р ЮрийАлексеевич 18-08 21:26
ВНИМАНИЕ АКЦИЯ! "4 колеса" ОПТОВАЯ ЦЕНА Kolyan0180 (8) 16-08 -> 18-08 19:35
Куплю конусы балансировочные и гайку быстрого зажима Kopjevod 18-08 14:29
куплю штампы или литье r15 5x120 mrakoff! 18-08 14:19
Куплю колпаки на диски статус GoodspeeD 18-08 13:57
Продам литье R14 4х100 kustik19 18-08 11:44
Продам штампованные диски 4х100 R15 (Фото) Dr_Silver 18-08 11:42
продам yokohama bluearth 195-65-15 (фото) Dr_Silver 18-08 11:39
Продам зимние шины Кама-евро 519 185-65-15 (ФоТо) Dr_Silver 18-08 11:38
куплю зиму 185-70-14 Артём_1 18-08 06:37
Продам 1шт. 185-60-р15 Виатти страда pavel444 17-08 22:40
Резина Зимняя Шипованная Nokian Hakkapeliitta 7 r15 1 штука продам Лучик весны (2) 16-08 -> 17-08 21:22
Куплю 1шт. matador elite 3 19550 r15 82h izhevsk-city 17-08 17:30
Куплю что нибудь Б/У 185/65/15 2 шт. ЛЕТО Kolodkin+ 17-08 13:59
СРОЧНЫЙ ВЫКУП АВТОРЕЗИНЫ, ДИСКОВ и КОЛЕС Kolyan0180 (12) 05-07 -> 17-08 11:22
выкуп зимней резины, колес в день обращения деньги сразу pyatoe_koleso 17-08 09:35
Новые литые диски R16 5x105! Fudo 16-08 18:37
Литые диски бу R15 5x100! Fudo 16-08 18:36
Новая зимняя резина по акции r17 225x45! Fudo 16-08 18:10
Зимняя резина бу R14 185x70! Fudo 16-08 17:49
КУПЛЮ Amtel Planet DC 185/70 R14 88H(новую) Vitamin777 16-08 17:36
Резина Зимняя Шипованная Nokian Hakkapeliitta 7 R18 продам попарно Лучик весны 16-08 14:30
Резина Зимняя Шипованная Nokian Hakkapeliitta 7 R17 продам комплект Лучик весны 16-08 14:30
Куплю R13 Резину летнюю на Матиз Matiz SFERA-S 16-08 11:51
продам зиму Nordman R16 pilot18 16-08 11:43
продам литые диски R13 pilot18 16-08 11:38
продам 2 штампа оригинал Nissan Almera R15 pilot18 16-08 11:27
продам комплект оригинальных штампах R14 Skoda Fabia, WV Polo pilot18 16-08 11:25
Продам шины Вулкан старт haltai 16-08 10:52
Резина и Диски R16, R17 Фото monomax 16-08 10:13
выкуп зимней и летней резины, колес в день обращения деньги сразу pyatoe_koleso 16-08 09:37
Шины грузовые на канализацию, возможна доставка! Олеся85 15-08 16:48
Резина для Нивы 4х4 Manner 15-08 16:15
2055516радиус Goodyear eagle net 5, комплект продам 89128710786 Ильнурик 15-08 13:43
Шины на Шниву 15. шипы. Бу sergteh (4) 10-08 -> 15-08 11:38
shina-18 самые НИЗКИЕ цены на шины и диски Kolyan0180 (32) 05-07 -> 15-08 09:56
Зима 20555 R16 на штампах 6.5х16 ЕТ52.5 Евгений Лимонов 14-08 21:17
продам зиму 2 колеса на штампах ВАЗ R14 pilot18 14-08 16:05
продам покрышку 1шт зимнюю R13 новую pilot18 14-08 16:01
продам зиму 2 покрышки R14 pilot18 14-08 15:57
Продам 3 колеса ВАЗ 175-70-р13 поштучно pavel444 14-08 14:42
Колеса на летней резине Ventus S1 Evo 2 K117 23545 WINCHESTER13372 14-08 10:34
Новые литые диски R15 4x98 на ВАЗ(LADA)! Fudo 14-08 10:06
Литые диски от субару бу R15 5x100! Fudo 14-08 10:03
Новая зимняя нешипованная резина R15 195x50! Акции! Fudo 14-08 10:01
Зимняя резина бу R18 235x60! Fudo 14-08 09:56
Продам летнию резину Баргузин 4х4 r15 на ниву шеврале, волгу, и т.д. Vrajnov 14-08 08:15
продам грязевую резину на ниву e2rdson Manner
(1)
26-03 -> 14-08 07:53
продам зиму покрышки Nordman+ R14 pilot18 14-08 00:35
продам зиму Nordman 5 R14 pilot18 14-08 00:32
продам на запаску R16 лето pilot18 14-08 00:25
продам липучки Sava R15 pilot18 14-08 00:21
Куплю штампы R16 Andrey1308 13-08 20:34
продам шины yokohama geolander g033 25070 r16 IZHAUTOSHOP 13-08 19:10
куплю зиму R13 pilot18 13-08 15:55
Куплю зиму R15 205 или 215 bratello 13-08 14:21
Куплю покрышки кама 217 Р14 G-GYRDA 13-08 09:39
Куплю зиму 235/60 R18 бу 4 шт shasernik 12-08 17:36
Куплю лето 265/65/17 shasernik 12-08 17:31
продам к-т литых дисков (из 5штук) R-16 на ТЛК-100 aroma757 12-08 08:17
Новое колесо с запаски R13 pilot18 11-08 21:18
куплю зимние колеса на Логан okoshko 11-08 20:44
Летняя резина бу R18 235x60! Fudo 11-08 19:25
Продам зиму КАМА ЕВРО 519 195/55/15 driver82 11-08 16:26
Продам одиночки резину Р-14 driver82 11-08 16:16
продам колпаки на шкоду 19565 r15 Вася68 (1) 10-08 -> 10-08 19:20
Шина toyo vlvi2010 10-08 11:41
Куплю шину toyo proxes t1r 20555 zr16 vlvi2010 10-08 11:37
продам оригинальные штамп.диски на солярис 01RUSLAN01 10-08 06:15
Куплю КАМА-230 (или др. КАМА) 185/65/R14 2 шт СРОЧНО kruiz18 10-08 00:39
продам колпаки оригинал Skoda Fabia R14 pilot18 10-08 00:30
Новые литые диски R16 5x114, 3! Fudo 09-08 17:30
Литые диски с пежо бу R14 4x108! Fudo 09-08 17:22
Новая зимняя резин по акции R14 175x65! Fudo 09-08 17:15
Зимняя резина бу R17 215x45! Fudo 09-08 17:09
Michelin Latitude X-Ice North2 - XL 235\65\ R17 108T izhamigo 09-08 09:01
Продам остатки бу шин из Германии (комплекты, пары. одиночки ) От R-14 до 20 Фото. kasatik50 09-08 08:49
Диск хром Америка на на Ниву или Витару на заднюю дверь . kasatik50 09-08 08:48
КУПЛЮ Continental ContiPremiumContact 2 195-55 р15 1шт! markvin kvnshik
(1)
08-08 -> 09-08 08:23
Куплю Amtel Cruise 4x4 21565 R16 stas12 08-08 23:51
Новые литые диски R16 5x139, 7! Fudo 08-08 17:37
Литые диски бу R17 5x105! Fudo 08-08 17:35
Новая зимняя резина по акции R15 185x65! Fudo 08-08 16:51
продам колеса комплект зима R16 Predator01 08-08 16:45
Летняя резина бу R16 205x60! Fudo 08-08 16:25
Продам Nokian Hakkapeliitta 5 бу exestent 08-08 11:56
Продам шины Yokohama бу exestent 08-08 11:51
Шины зимние Кама Евро 519 (185/60 R14) на дисках штампованных AMD 18 08-08 07:07
Куплю колеса зимние 175х70 r13 на ВАЗ 2115 DLRossa (2) 06-08 -> 07-08 20:50
ВЫКУП ЗИМНИХ И ЛЕТНИХ ШИН, КОЛЕС, а также ОБМЕН ваших СТАРЫХ на НОВЫЕ  страницы1 2 3 4 ШИНОМОНТАЖ Kolyan0180
(123)
20-09-2016 -> 07-08 12:11
Продам бу шины 315/17 ведущие Олеся85 07-08 12:10
Продам бу грузовые шины на пприцеп 385/55 (низкий профиль) Олеся85 07-08 12:08
Новые литые диски R16 4x100! Fudo 07-08 12:07
Литые диски бу r17 5x105! Fudo 07-08 12:06
Продам колеса r13 17570 lsim 07-08 12:05
Новая зимняя резина по акции R16 205x55! Fudo 07-08 12:01
Зимняя резина бу R17 265x65! Fudo 07-08 11:07
Продам 1шт. 185-60-р15 Виатти страда pavel444 07-08 07:03
Продам 3 колеса ВАЗ 175-70-р13 поштучно pavel444 07-08 07:02
Летняя резина бу R17 265х65! Fudo 06-08 19:07
куплю колпак пежо р15 Марсианин (2) 28-07 -> 06-08 13:00
Куплю Michelin Pilot Exalto PE2 195\50р15 1шт! Марсианин (5) 11-07 -> 06-08 12:57
Продам летнюю Континенталь 1856014 4шт.Отличное состояние. kvnshik 05-08 22:29
Продам на Chevrolet Lacetti, лансер9 r16 Baronn 05-08 12:32
Продажа или обмен шин -=Den's=- 05-08 11:50
продам новые летние шины pirelli cinturato p1 18555 r15 h 82 ленок13 Dr_Silver
(1)
04-08 -> 05-08 10:02
Продам литые диски R14 YaSk alex_t4
(1)
26-05 -> 05-08 00:20
Куплю резину на Весту YaYago 04-08 18:34
куплю резину 55 или 50 R17 Kitekat 04-08 16:02
Новые литые диски по акции R16 5x114, 3! Fudo 04-08 13:22
Литые диски бу r16 5x112! Fudo 04-08 13:19
Новая летняя резина r17 225x45! Акция! Fudo 04-08 13:17
Летняя резина бу R18 235x65! Fudo 04-08 13:09
Куплю диски и резину летнюю den118 04-08 12:51
Продам ш.диски R15 4*100 KIA RIO, Hyundai(Solaris, Getz, Accent, Verna) ФОТО АЛМАЗОВНА 03-08 22:45
Продам на Chevrolet Lacetti, лансер9, ниссан(альмера, тиида), ш.диски R15 к-т ФОТО АЛМАЗОВНА 03-08 22:22
Новые литые диски R16 5x100! Акция! Fudo 03-08 09:26
Литые диски бу R14 4x98! Fudo 03-08 09:22
Новая летняя резина R14 175x65! Акция! Fudo 03-08 09:18
Летняя резина бу R17 235х65! Акция! Fudo 03-08 09:12
куплю 1 шину р16 23570 летняя djei пуклёк
(1)
01-08 -> 02-08 16:55
245х45 r 17 лето продам dener (5) 24-06 -> 02-08 11:07
продам литье оригинальное к-т от OPEL R15 4*100, toyota(corolla, yaris), chevrolet(sp АЛМАЗОВНА 02-08 00:34
Продам зиму на литье для нивы kost1981 (1) 01-08 -> 01-08 18:32
Диск хром Америка на на Ниву или Витару на заднюю дверь . kasatik50 01-08 16:24
Продам остатки бу шин из Германии (комплекты, пары. одиночки ) От R-14 до 20 Фото. kasatik50 01-08 16:23
выкуп зимней и летней резины, колес в день обращения деньги сразу pyatoe_koleso 01-08 14:51
продам комлект на литье.форд фокус р16 01RUSLAN01 01-08 12:54
диски всмпо rexther (2) 06-07 -> 01-08 12:40
Болты для литых дисков marketamine 01-08 10:58
Продам летнию резину Баргузин 4х4 r15 на ниву шеврале, волгу, и т.д. Демонтаж Сервис 01-08 08:22
Продам летнюю Виатти 1956515 4шт.4900кт. kvnshik 31-07 21:33
Куплю резину уаз 16R Kykysf Lenar700205
(1)
30-07 -> 31-07 20:25
куплю баргузин 4х4 б.у 1шт wan hoo Федор204
(1)
29-07 -> 31-07 18:12
Продам летнюю Бриджстоун 2055516 4шт.Отличное состояние. kvnshik 31-07 14:50
Продам Диски от Субару 100х5 Ded-Staff (1) 31-07 -> 31-07 09:39
Продам литые диски на лете на волгу! Vrajnov 31-07 09:15
Продам 3 колеса ВАЗ 175-70-р13 поштучно pavel444 30-07 20:56
Продам Nokian Hakkapeliitta 8 R13 1757 akud 30-07 20:28
Продам зиму для нексии бриджстоун круиз 175*65*14. Andrey1308 (1) 30-07 -> 30-07 06:48
выкуп зимней и летней резины, колес в день обращения деньги сразу pyatoe_koleso danilof8080
(2)
30-06 -> 29-07 15:35
Куплю покрышки пикаповские, москвичевские недорого Poltan-off Volodya60
(1)
24-07 -> 29-07 13:35
Продам комплект летней резины Амтел 185/60/14 КАРКАСНОЕ СТРО-ВО! 29-07 10:28
продам зиму Nordman R14 ВАЗ pilot18 danilof8080
(1)
25-07 -> 29-07 08:56
Куплю колпаки Opel R16 (как на фото) Дима Р 28-07 11:10
Шины зима кама евро 4шт r15 -igor- 28-07 09:21
Комплект колёс на литье. Oksanamyr dubster
(1)
07-07 -> 28-07 07:07
Б.У шина на уаз Lenar700205 (1) 27-07 -> 27-07 20:10
На запаску ваз Lenar700205 (1) 27-07 -> 27-07 20:03
Продам штатные шины SPORTAGE R18 2шт Леонидыч84 Mrzlo
(1)
04-04 -> 27-07 17:22
продам компл. на литье от соляриса Артём_1 27-07 06:37
куплю колесо на газель ZARIZA ! 26-07 23:25
Куплю диски 5х112 bratello (2) 25-07 -> 26-07 20:32
БОЛТЫ, ГАЙКИ, КАМЕРЫ, СЕКРЕТКИ, УСТ.КОЛЬЦА, МЕХ.НАКИДКИ и многое другое... Kolyan0180 [Grimm]
(35)
22-04-2014 -> 26-07 10:10
Опрос по индустриальной шине Nortec ER-205 Nortec 26-07 08:23
куплю зимние шины R16 либо R15 шт. либо новую либо бу очень хорошие Latinos 25-07 21:57
продам зиму R16 pilot18 25-07 12:34
продам зиму Nordman 5 R14 VW Polo, Skoda Fabia pilot18 25-07 12:29
продам зиму на Matiz, Spark pilot18 25-07 12:25
продам Кама 208 18560R14 Кот Матроскин 25-07 11:53
Шины летние, зимние, камеры R12-16, ликвидация магазина seo18 Вася68
(1)
15-07 -> 25-07 09:54
Ищу обмен колес R14 -=Den's=- ЗиЛ
(3)
23-07 -> 25-07 07:48
Продам комплект зимней резины R16 Комяк 25-07 07:37
Продам штампованные диски на Ваз R14 4 шт Polio 25-07 03:46
Продам комплект штампованных дисков от Toyota Corolla R16 Polio 25-07 03:40
ДИСКИ (штампованные и литые, колпаки, новые и бу) в ассортименте ФОТО  страницы1 2 3 Kolyan0180 Poltan-off
(83)
05-10-2015 -> 24-07 22:07
Куплю штампованный диск R14 на ВАЗ vovis 24-07 12:31
покрышка 1шит мишлен р17 торг ЮрийАлексеевич 23-07 22:22
Bridgestone В250 19565 R15 куплю ТТ18 23-07 11:30
КУПЛЮ лето шину continental contiecocontact 3 19565 r15 или другое к-кт К...ЯН Vladimir KVN
(2)
17-07 -> 22-07 22:31
Куплю р14 на калину felix184 22-07 14:41
Продам Хенкук оптима Р-16 к-т driver82 22-07 11:52
Продам новую Йокогаму Геоландер G-900 R-16 (1шт) ФОТО aroma757 (1) 22-07 -> 22-07 07:53
куплю комплект летних колес на ваз r14 vibetgk 21-07 08:31
Куплю на Маз шины R 20 12.00 в очень хор состоянии, или новые Latinos 21-07 00:00
Литые диски АУДИ А4 R16 5*112 c резиной. Vladimir KVN (1) 20-07 -> 20-07 16:21
Продаются новые колеса Фольксваген Гольф 7 Vladimir KVN (2) 20-07 -> 20-07 16:09
Куплю резину на Газель, новую. evgenchik141 20-07 11:50
Продам литье резина лето на волгу, есть резина р15 баргузин 4на4 на ниву шевроле Vrajnov 20-07 10:29
Новые литые диски R16 5x112! Fudo 20-07 10:12
Литые диски бу R18 5x120! Fudo 20-07 10:09
Новая летняя резина r15 205x75!Акция! Fudo 20-07 10:06
Летняя резина бу R18 235x60! Fudo 20-07 09:55
Продам бу Р13 17570 2шт на литье 2.5 т.руб. rgray 19-07 20:46
куплю зимнюю на Газель dispetcher 19-07 07:04
Продам шины Nordman 5 (175.70.R13) Nag12 (2) 18-07 -> 18-07 07:56
продам штамповки Opel r16 fuyll hellalight
(1)
20-07-2016 -> 17-07 23:40
Отличные БY резина на дисках и без от 13 до 18R настенка (2) 17-07 -> 17-07 20:45
Куплю резину Nokian Hakka Green ucmepuka 17-07 16:45
куплю гайки под литьё на форд фокус 2 almaz42 17-07 15:58
Продам литьё на волгу R15 резина лето! Демонтаж Сервис 17-07 09:29
продам к-т R-16 лето на Крузак-100 оригинал(ФОТО) aroma757 16-07 12:04
Продам Комплект зимних колес Glavatskih93 16-07 10:48
Куплю 22555-17 лето ДемасеГ 15-07 13:45
Новые литые диски R16 5x112! Fudo 15-07 12:20
Литые диски бу r 15 5x114, 3! Fudo 15-07 12:17
Новая летняя резина R16 245x70! Fudo 15-07 12:11
Летняя резина бу r17 235x55! Fudo 15-07 11:12
Куплю резину на нексию denis 81 Andrey1308
(1)
13-07 -> 15-07 10:35
куплю лето на литье на ВАЗ 2114 pilot18 13-07 20:16
Зимние шины Amtel Nordmaster ST310 20555R16 SpN88 13-07 20:15
Продам шины зима 2756020 shasernik 13-07 19:19
новая резина continental contipremium contact5 21555 на дисках (то есть колеса) 25тр Apem 13-07 14:38
Продам комплект японских колес в сборе R18 5х114.3 Серега 28 13-07 13:40
куплю 215-65-16 брижстоун Артём_1 13-07 09:29
куплю амтел планет дс 175-65 14 Артём_1 13-07 09:26
Колеса для ТойотыR16 andreyshoo26 12-07 20:02
покрышки r 18 235х60 Skromnyga 11-07 20:53
куплю литой диск или продам 3 шт впервые 11-07 20:26
Новые литые диски r16 5x139, 7! Fudo 11-07 18:48
Литые диски бу r14 4x108! Fudo 11-07 18:45
Новая летняя резина r14 18570! Fudo 11-07 16:43
Куплю 13" кованные диски на Оку. HomerSimpson 11-07 16:40
Летняя резина бу R16 22570! Fudo 11-07 16:30
продам Литье R16 pilot18 11-07 12:56
Диски Литые на Лансер-9 Р15 4шт.Новое состояние. kvnshik (1) 11-07 -> 11-07 11:22
Продам летнюю Ханкук 1955515 4шт.Отличное состояние kvnshik 11-07 11:16
Новые колеса Фольксваген Гольф 7 р15 Vladimir KVN 11-07 10:56
Продам литые диски R 15 бу marino 11-07 09:56
колесо для нексии R13 продам Игорь71 11-07 08:34
Шина Nokian HLPT C2 205 R16 зимняя Toyota18 11-07 05:52
Ремонт, восстановление, сварка, покраска литых и штампованных дисков! diimka18region sana1796
(1)
10-07 -> 11-07 01:17
Куплю 4 штампа ОПЕЛЬ R15 4х100 Slomoniwe 10-07 22:09
Поменяю к-т зимы от Нексии на лето! aroma757 10-07 20:07
Bridgestone Blizzak Revo GZ 18560 R15 (липучка) 4 шт ekZo0 10-07 19:07
Продам 3 колеса ВАЗ 175-70-р13 поштучно pavel444 10-07 18:26
Продам колесо R-15 5105 olejke 10-07 14:03
Продам диск R-13 на ваз olejke 10-07 13:58
Продам литые диски на волгу... Vrajnov 10-07 09:17
Продам колеса, резину лето баргузин 4X4 R15 на волгу, Ниву шевроле... Демонтаж Сервис 10-07 08:59
Продам 195 на 65 р15 зима 2 шт ЮрийАлексеевич 09-07 23:26
Диск хром Америка на на Ниву или Витару на заднюю дверь . kasatik50 09-07 22:36
Продам остатки бу шин из Германии (комплекты, пары. одиночки ) От R-14 до 20 Фото. kasatik50 09-07 22:34
Куплю шины R16 4шт на 195 либо 205 зимние, новые либо бу в отл сост Latinos 09-07 21:37
Продам 14" литые диски 4х98 -Spark- 09-07 17:33
продам диск штамп на нексию 14R Grisha001 09-07 15:51
Новые литые диски R16 5x114, 3! Fudo 09-07 12:06
Литые диски бу R16 5x120! Fudo 09-07 11:28
Новая летняя резина r15 195x65! Акция! Fudo 09-07 11:25
Летняя резина бу R18 225x55! Fudo 09-07 11:22
продам комплект колес на фф2 01RUSLAN01 (2) 09-07 -> 09-07 07:17
Продам 13 штампы на ваз. Jongie 09-07 01:11
Новые литые диски на ниву R16 5x139, 7! Fudo 08-07 12:20
Литые диски бу R16 5x112! Fudo 08-07 12:07
Новая летняя резина R16 205x60! Fudo 08-07 12:05
Летняя резина бу r17 225x65! Fudo 08-07 12:01
2157516 пара шин для микроавтобуса нормальная шинка 07-07 21:04
Новые литые диски r18 5x114, 3! Fudo 07-07 19:07
Литые диски бу r16 5x114, 3! Fudo 07-07 19:04
Новая летняя резина R15 185x65! Fudo 07-07 18:58
Новая резина бу R17 265x65! Fudo 07-07 14:59
Продам комплект шины и литые диски R15 Roma99 07-07 14:20
диски на Газель интересуют МатиасРуст Федор204
(1)
01-07 -> 06-07 14:43
куплю 185-70-14 можно не компл Артём_1 06-07 12:22
Колеса от Нивы 5 штук "злая" резина капляХенаси 06-07 10:31
продам летнюю шину bridgestone dueler hp sport 27540 r20 106y runflat. бронированн Vasechkin001 05-07 11:21
Куплю (в поиске) новой Toyo Proxes CF2 SUV 22565 r18 4шт. dimonkin86 Vladimir KVN
(1)
04-07 -> 05-07 08:46
Шина Nokian HLPT C2 205 R16 зимняя Toyota18 05-07 05:21
выкуп зимней и летней резины, колес в день обращения деньги сразу pyatoe_koleso 04-07 10:26
Продам колеса, резину лето баргузин 4X4 R15 на волгу, Ниву шевроле Демонтаж Сервис 04-07 08:36
Продам колеса R14, R13 HekuT 04-07 08:23
Шины летние, зимние, камеры R12-16, ликвидация магазина seo18 (2) 03-07 -> 04-07 08:19
Продам литьё на волгу R15 резина лето! Vrajnov 04-07 08:19
куплю штампы 15" 5x112 цо66.6 Kitekat 04-07 01:25
Куплю шины r20 на 12, 00 для Маза, новый или в очень хор сост. а так же зимние R16 Latinos 03-07 23:23
Продам летнюю шину Hankook Kinergy Eco R15 195-65 (1шт). Vasechkin001 03-07 22:20
Продам комплект диски и шины на Lada Vesta 195/55/R16 Dreamman (4) 23-06 -> 03-07 21:29
Продам колеса r15 Slik с резиной yokohama ALEX999 (2) 06-06 -> 03-07 17:13
куплю R17 21560 - 2 шт. Sergey020 02-07 23:44
Куплю Кама 217 R14 Andy C 02-07 18:05
Новые литые диски R16 5x139, 7! Fudo 01-07 19:36
R16 5x114, 3 литые диски бу! Fudo 01-07 19:34
Новая летняя резина r14c 185! Fudo 01-07 19:23
Летняя резина бу R17 225x50! Fudo 01-07 19:19
Интересует бу резина Nokian Hakka green R14 18560 sunchas 01-07 11:28
Продам Летнюю Кама Евро 1856014 4шт. kvnshik 01-07 00:30
Продам летнюю Йокохама 2055516 4шт Япония. kvnshik 01-07 00:29
гайки для колесных дисков Mazda продам подходят и к другим авто sheff (1) 30-06 -> 30-06 20:02
Новые литые диски R16 5x114, 3! Акция! Fudo 30-06 12:20
Литые диски бу R16 5x120! Fudo 30-06 12:17
Новая летняя резина R15 185x65! Fudo 30-06 11:53
Летняя резина бу R16 265x70! Fudo 30-06 11:48
нужно шины М 100 от иж 2715 8754569birin 30-06 08:03
Йокогама Геоландер G-900 (новая) продам фото aroma757 (2) 29-06 -> 30-06 07:08
Продам 3 покрышки Dunlop 2050 205-60 R16 Welcome-group 29-06 20:59
Куплю ступичный колпачок на оригинальный диск Ниссан R16 Men's Andrey1308
(1)
29-06 -> 29-06 19:32
ДИСКИ (штампованные и литые, колпаки, новые и бу) в ассортименте ФОТО Kolyan0180 29-06 18:45
Опрос по сельскохозяйственной шине Nortec Nortec 29-06 13:13
Продам японскую резину Nitto NT555 Extreme ZR 22535 r19 Diger.94 29-06 10:34
Продам 1шт. 185-60-р15 Виатти страда pavel444 29-06 09:41
R18 235x65 летняя резина бу! Fudo 29-06 09:39
Шины летние, зимние, камеры R12-16, ликвидация магазина seo18 dispetcher
(1)
26-06 -> 28-06 21:05
Шина Nokian HLPT C2 205 R16 зимняя Toyota18 27-06 22:02
Колеса 26565 r17 bridgestone Tatarmalay727 27-06 17:55
Продам литьё на волгу R15 резина лето! Vrajnov 27-06 14:50
выкуп зимней и летней резины, колес в день обращения деньги сразу pyatoe_koleso 27-06 10:36
Продам зимний комплект R16 Комяк 27-06 07:55
Опрос по индустриальной шине Nortec Nortec 27-06 07:35
Продается Шина 570-71121.00-28 дф-27 57080 R28 myotra 26-06 14:32
Продается Шина Я-190 15.00-20 myotra 26-06 14:29
Новые литые диски R16 5x112! Акция! Fudo 26-06 10:05
Литые диски бу r16 5x150! Fudo 26-06 10:03
Новая летняя резина r13 175x70! Fudo 26-06 10:00
R16 205x55 летняя резина бу! Fudo 26-06 09:49
Продам лето 19565 R 15 ханкук. Фото. Andrey1308 (2) 26-06 -> 26-06 09:13
Продам колеса, резину лето баргузин 4X4 R15 на волгу, Ниву шевроле Демонтаж Сервис 26-06 07:59
Куплю торусы R 15 или R16 4x98 PashaIpatov 25-06 23:56
Лето R-16 / 265-70 из 5-и штук продам Б/У на ДЖИП (фото) aroma757 25-06 21:09
2356517 DIM{@}N 25-06 20:07
Куплю пару колёс на зил бычок stas.on 25-06 12:11
205х65 р 15 куплю лето dener 25-06 07:58
2 диска форд р 15 продам фото dener (2) 24-06 -> 24-06 18:27
продам Cordiant Comfort 20555R16 Leha-na-izhe 24-06 17:02
Сколько стоят новые стандартные шины с дисками (штамповка) на Лада 4х4 WMZ 24-06 13:40
Новые литые диски R16 5x114, 3! Fudo 24-06 11:25
R14 4x98 литые диски бу! Fudo 24-06 11:22
Новая летняя резина r17 235x65! Fudo 24-06 10:59
R16 205x55 летняя резина бу! Fudo 24-06 10:51
235х45 R 17 лето продам dener (2) 24-06 -> 24-06 08:05
Продам 2 бу комплекта зимней резины R16 Nokian и Pirelli (ФОТО) ПареньИзПреисподней (2) 23-06 -> 23-06 21:23
Колпаки разные driver82 23-06 21:20
Продам Хенкук Р-16 driver82 23-06 20:36
продам литье kk r15 4100 на kia rio, hyundai solaris, reno, chevrolet, лада веста фото АЛМАЗОВНА 23-06 14:46
Новые литые диски r16 5x139, 7! Fudo 23-06 10:42
R15 4x114, 3 литые диски бу! Fudo 23-06 10:39
Новые летние шины R16 215х65! Fudo 23-06 10:34
R16 215x65 летняя резина бу! Fudo 23-06 10:13
продам БУ к-т летних шин R-16 70-265 Тойота Ленд Крузер-100 aroma757 23-06 06:26
Продам летнюю шину Hankook Kinergy Eco R15 195-65 (1шт). Vasechkin001 22-06 23:04
Куплю r15 vanya-r 22-06 22:04
выкуп зимней и летней резины, колес в день обращения деньги сразу pyatoe_koleso 22-06 15:47
куплю континенталь премиум контакт 205х55х16 66 kilometr (1) 22-06 -> 22-06 14:39
Новые литые диски R16 5x139, 7! Fudo 22-06 10:06
Литые диски бу r15 5x114, 3! Fudo 22-06 09:55
Новая летняя резина! R17 215x55! Акция! Fudo 22-06 09:36
R18 235x50 летняя резина бу! Fudo 22-06 09:31
Шины летние, зимние, камеры R12-16, ликвидация магазина seo18 22-06 08:30
Продам колеса, резину лето баргузин R15 на волгу, Ниву шевроле Vrajnov 21-06 20:13
Новая летняя резина R14 175x65! Акция! Fudo 21-06 14:22
R15 185x55 летняя резина бу! Fudo 21-06 14:16
Продам литые диски 4шт. R-14 пуклёк 20-06 12:35
Куплю штампы на ВАЗ 4 шт. Прокс Dr_Silver
(1)
17-06 -> 20-06 12:15
Новые литые диски R18 5x114, 3! Акция! Fudo 20-06 10:18
Литые диски бу r15 4x100! Fudo 20-06 10:15
R18 225x45 новая летняя резина! Акция! Fudo 20-06 10:10
R17 235x55 летняя резина бу! Fudo 20-06 09:59
куплю 2555019 одну шт нормальная шинка 19-06 15:42
Куплю диск R16 Mercedes (фото) Серж77 19-06 14:32
Новые литые диски R17 5x114, 3! Fudo 19-06 11:36
r15 5x110 литые диски бу! Fudo 19-06 11:33
продам пару зимн.резин 14 ilz 19-06 11:30
Новая летняя резина R14 185x65! Fudo 19-06 10:59
R17 265x65 летняя резина бу! Fudo 19-06 10:43
Липучки на кроссовер продам Andrey1308 (2) 19-06 -> 19-06 09:24
Пересверлить ступицы требуется kam@rik 18-06 19:19
Бриджстоун Туранза 205/55 R16 в ОТС с диском продам. Aleksey123 18-06 15:55
Продам зимнюю Cordiant R14 kent999 18-06 12:56
Продам зимнюю Кама Ирбис R14 kent999 18-06 12:40
Продам зимние на Матиз kent999 18-06 12:33
куплю штампы R-15 на форд ренджер NHL 18-06 11:20
куплю штампы на рено дастер pal6976 18-06 10:47
Новые литые диски R16 5x139, 7! Fudo 18-06 09:32
Литые диски r17 5x112! Fudo 18-06 09:30
Новая летняя резина r15 195x65! Fudo 18-06 09:26
r20 255x50 летняя резина бу! Fudo 18-06 09:20
Куплю шину NOKIAN HAKKA BLUE XL 205/55/16 1 поколения! Kolodkin+ 17-06 11:57
r18 235x50 летняя резина бу! Fudo 17-06 10:48
Колпаки оригинал driver82 16-06 22:14
Колпак Р-16 driver82 16-06 22:12
продам колпаки разные driver82 16-06 22:11
куплю Yokohama Geolandar G035 215/60R16 Leha-na-izhe aroma757
(2)
10-06 -> 16-06 17:49
Продам 4 штампа r14 на Ваз olya1609 (1) 16-06 -> 16-06 16:44
выкуп зимней резины, колес в день обращения деньги сразу pyatoe_koleso 15-06 19:11
Шины летние, зимние, камеры R12-16, ликвидация магазина seo18 ЛоганАвто
(2)
03-06 -> 15-06 18:43
Новые литые диски R17 5x114, 3! Акция! Fudo 15-06 10:29
Литые диски бу r15 5x108! Fudo 15-06 10:24
Новая летняя резина r16 215x70! Fudo 15-06 10:17
R20 265x50 летняя резина бу! Fudo 15-06 10:14
Новая летняя резина R18 225x40! Акция! Fudo cure18
(1)
14-06 -> 14-06 14:22
Новые литые диски R16 5x114, 3! Fudo 14-06 09:47
Литые диски бу R17 5x105! Fudo 14-06 09:43
R16 205x55 летняя резина бу! Fudo 14-06 09:22
Продам летнюю Йокохама 205 55 16 4шт Япония.6900кт kvnshik 13-06 23:11
Продам камеры Р15 Новое состояние.Россия. kvnshik 13-06 23:08
продам зиму новую почти tttm 13-06 12:23
Куплю бриджстоун потенза r-16 shirik 13-06 11:11
куплю Бриджстоун Туранза ER30 R15 Taraska 13-06 08:44
Шины летние, зимние, камеры R12-16, ликвидация магазина seo18 13-06 08:00
акуительные разноширокие колеса р18 за дешево [DIMIX] 12-06 23:39
R17 21545 KUMHO KH 17 87H новые 3шт Леонидыч84 (1) 12-06 -> 12-06 15:41
Предложите off-road резину MT, AT на ниву mmuia Леонидыч84
(1)
09-06 -> 12-06 15:34
куплю 1 покрышку michelin pilot exalto pe2 Марсианин (1) 12-06 -> 12-06 11:35
Куплю летнюю резину. cartier 11-06 17:31
Куплю на Маз диск на клиньях R 20 в очень хор состоянии, Latinos bytam
(1)
11-06 -> 11-06 10:42
Куплю 175-70-R14 4шт alesk 11-06 01:39
Летняя резина Hankook K117A 255*55*18. 109W Новая Vladimir KVN 10-06 08:46
Новые колеса Volkswagen Golf 7 R15 195*65*15 Vladimir KVN (1) 10-06 -> 10-06 08:41
Куплю кама 219 r 14 2 шт или 1856514 4шт по предложению бу ГРАДОПЛАСТИКА 09-06 16:27
Волга Колеса литые R15 Демонтаж Сервис 09-06 11:09
Колеса комплект в сборе Нива шевроле, Волга r15 , баргузин 4 на 4 состояние норм! Vrajnov 09-06 11:00
Новые литые диски r17 5x114, 3! Акция! Fudo 09-06 09:26
Литые диски бу r15 5x114, 3! Fudo 09-06 09:23
Новая летняя резина r14 175x65! Акция! Fudo 09-06 09:17
R16 215x55 летняя резина бу! Fudo 09-06 09:12
диски на дастер pal6976 08-06 15:06
Новые литые диски R17 5114, 3! Fudo 08-06 09:35
Литые диски бу R15 4x100! Fudo 08-06 09:27
Новая летняя езина r16 185x75! Fudo 08-06 09:21
R18 235x55 летняя резина бу! Fudo 08-06 09:11
продам шины 2шт R-17 / 225-50 БУ aroma757 08-06 07:32
Литые диски бу r17 5x105! Fudo tttm
(1)
06-06 -> 07-06 22:54
Куплю кордиант спорт 17570R14 -2шт. daimos 07-06 13:21
продам литые диски R13 ВАЗ pilot18 07-06 11:58
Продам колесо на 13 (запаску) Lenar700205 07-06 10:29
Продам комплект дисков на14 Lenar700205 07-06 10:22
Новые литые диски r17 5x114, 3! Fudo 07-06 10:11
Литые диски бу r16 5x112! Fudo 07-06 10:08
Новая летняя резина r16 205х55! Акция! Fudo 07-06 10:05
Летняя резина бу r18 255x40! Fudo 07-06 10:02
продам литые диски R16 pilot18 GrayHair
(1)
06-06 -> 06-06 21:59
Продам 1шт. 185-60-р15 Виатти страда pavel444 06-06 21:05
Продам 1шт 185-60-р14 Белшина pavel444 06-06 21:04
Комплект колёс на тойоту andreyshoo26 06-06 20:53
продам комплект лета на штампах R13 Shtriban 06-06 18:58
продам литье на лете R15 на ФФ2 Shtriban 06-06 18:51
продам покрышку AMTEL 17570 R13 32Н ваян (2) 06-06 -> 06-06 11:59
Куплю резину 8.25-20 на ГАЗон Tehinvest 06-06 11:15
штампы опель и*г*о*р*ь 06-06 10:19
Новые литые диски r16 4x100! Fudo 06-06 09:32
Новая летняя резина R16 195x50! Fudo 06-06 09:26
R16 215x65 летняя резина бу! Fudo 06-06 09:22
Продам колеса Nokian hakkapeliitta 7 195/55 r15 (фото) RST5 05-06 19:48
выкуп зимней резины, колес в день обращения деньги сразу pyatoe_koleso 05-06 16:54
Нужно обкатать диски 18 радиус. Pik@chu 05-06 11:29
Колеса, литые диски (Лето) на волгу R15 Vrajnov 04-06 13:32
КУПЛЮ Зимнюю резину 18565 р15 Марсианин 04-06 11:24
диски литье .Хонда .с резиной кама-евро r13 .4х100. герой асфальта (1) 04-06 -> 04-06 10:36
диски штамповки R16 5х100 . тойота. субару. герой асфальта 04-06 10:33
Новые литые диски r16 5x100! Fudo 03-06 09:57
Литые диски бу r14 4x98! Fudo 03-06 09:55
Новая летняя резина r14 175x65! Акция! Fudo 03-06 09:52
R16 205x55 летняя резина бу! Fudo 03-06 09:45
куплю летние 20565Р15 серж24 (2) 24-05 -> 02-06 21:26
куплю лето на логан Артём_1 01-06 18:59
Продам michelin primacy hp 22545 r17 siga1 01-06 15:08
Nokian 225*55*16 за комплект 2500 Vladimir KVN 01-06 13:37
Оригинальные кованые диски Фольксваген Ауди 5*112 R16 Vladimir KVN 01-06 11:53
выкуп зимней резины, колес в день обращения деньги сразу pyatoe_koleso -=Den's=-
(1)
31-05 -> 31-05 21:19
куплю pirelli scorpion r20 1шт. AD748 (2) 29-05 -> 31-05 19:34
Комплект колёс r16 5112 ivan_va8 (1) 31-05 -> 31-05 19:22
Продам 1шт. 185-60-р15 Виатти страда pavel444 31-05 18:58
Продам 3шт. лето 185-60-р15 дешево pavel444 31-05 18:58
Продам комплект дисков R15 Ronal KBA 45050 5x114.3, ET 38, на японок Diablo 31-05 18:33
продам колпаки оригинал Skoda Fabia R14 pilot18 30-05 20:42
На Газель резину куплю в хор сост или новую ЛоганАвто 30-05 18:35
Куплю сегодня летнюю резину 20555 R16 tema323 shasernik
(1)
30-05 -> 30-05 16:57
Продам диски на 100 Крузак R17 shasernik 30-05 16:54
куплю. 5. 139.7. 18" seriks Леонидыч84
(4)
27-05 -> 30-05 13:58
Куплю одну резину 2057014 на Волгу. Pavel 67 (3) 25-05 -> 30-05 09:43
Шины летние, зимние, камеры R12-16, ликвидация магазина. Скидка на шиномонтаж! seo18 30-05 08:38
Куплю резину Кама 205 - 1шт Aron_j 29-05 22:11
Куплю на Маз диск клиньями R 20 Latinos 29-05 21:42
Продам 1шт 185-60-р14 Белшина pavel444 29-05 12:51
Куплю одну Yokohama geolandar at-s igoreksh 29-05 07:10
Колпаки R15 3 штуки продам можно поштучно 190 руб. штука Лучик весны (2) 28-05 -> 28-05 21:13
Нужны шины Кама Флайм (20570R16) Валико77 28-05 20:15
Новые литые диски R18 5x114, 3! Акция! Fudo 28-05 09:52
Литые диски бу r20 5x120! Fudo 28-05 09:45
Новая летняя резина R14 185x60! Fudo 28-05 09:41
R16 215x70 летняя резина бу! Fudo 28-05 09:35
Шины летние, зимние, камеры R12-16, ликвидация магазина. Скидка на шиномонтаж! seo18 27-05 18:03
продам колпаки 2шт оригинальные на "Ниссан" р15 Olar1963 27-05 11:37
Новые литые диски r14 4x98! Fudo 27-05 10:19
Литые диски бу r15 5x115! Fudo 27-05 10:17
Новая летняя резина R14 185x65! Fudo 27-05 10:10
R16 205x55 летняя резина бу! Fudo 27-05 09:56
Куплю 1 шину Michelin Energy Saver 20555R16 XINSIDE (3) 25-05 -> 27-05 04:28
Куплю одну резину 195/55/16 18 регион bytam
(3)
17-05 -> 26-05 14:44
литьё 17е на липе почти новой продам поменяюсь и*г*о*р*ь (2) 25-05 -> 26-05 12:41
Новые литые диски R16 5x114, 3! Fudo 26-05 09:46
Литые диски бу R14 4x108! Fudo 26-05 09:44
Новая летняя резина R15 195x55! Fudo 26-05 09:41
R16 245x70 летняя резина бу! Fudo 26-05 09:35
Куплю: 235-85-16 или 265-75-16 Альбатрос 25-05 23:21
куплю грязевые колёса на уаз pilligrim002 25-05 18:10
выкуп зимней резины, колес в день обращения деньги сразу pyatoe_koleso 25-05 17:22
Новые литые диски R17 5x114, 3! Fudo 25-05 10:12
Штампованные диски бу r13 4x100! Fudo 25-05 10:04
Ноая летняя резина R14 185х60! Fudo 25-05 09:54
R15 195x60 летняя резина бу! Fudo 25-05 09:47
Продам два диска для L200 Volodya60 25-05 09:38
Шины летние, зимние, камеры R12-16, ликвидация магазина. seo18 Викторрр
(1)
22-05 -> 25-05 06:21
Резина R16 для Кроссовера GARA58 24-05 21:29
продам Комплект Зимних колес на ВАЗ R 14 KENT 444 (1) 24-05 -> 24-05 15:18
Куплю НИИШП Ралли 2000 Hellsinger 24-05 13:56
резина р16 лето GARA58 24-05 11:52
Колеса R16 205х55 разболт 4х114.3 Fatos 24-05 09:53
Новые литые диски R17 5114, 3! Fudo 24-05 09:49
Литые диски бу R17 5x112! Fudo 24-05 09:47
Новые летние шины R13 175x75! Fudo 24-05 09:44
куплю 215-55-16 бу antaga 24-05 09:40
R15 18555 летняя резина бу! Fudo 24-05 09:38
заводское литье на ваз 14 стасян1 (1) 23-05 -> 23-05 17:52
Продам диски rapid r15 шины Michelin energy saver r15 Kpekep (1) 23-05 -> 23-05 11:06
куплю 17е или 18е литьё 4на 114, 3 и*г*о*р*ь 23-05 09:26
Продам 1шт. 185-60-р15 Виатти страда pavel444 23-05 04:54
Продам 1шт 185-60-р14 Белшина pavel444 23-05 04:52
на Газель колеса нужны dispetcher 22-05 22:24
Продам Kama EURO 129 13 FashionGirl 22-05 21:48
Куплю летние шины 20565 r15 Gfront 22-05 18:54
Продам 195 на 65 р15 зима 2 шт ЮрийАлексеевич 22-05 16:23
Куплю 1 штамп R14 на ВАЗ Прокс Федор204
(1)
22-05 -> 22-05 14:38
Куплю летние шины R15 на KIA Rio MAR-MAR (2) 21-05 -> 22-05 11:43
Продам 3шт. лето 185-60-р15 дешево pavel444 22-05 10:22
Новые литые диски R16 5x114, 3! Fudo 22-05 09:57
Литые диски бу r16 5х150! Fudo 22-05 09:55
Ноые летние шины r13 175х75! Fudo 22-05 09:50
R14 175x65 летняя резина БУ! Fudo 22-05 09:43
Куплю резину для грязи R16 22565, 22570, 23565, 23570. Можно на 16 дисках 5х114 Toxep 21-05 22:03
Продам резину лето R15 19555 Hankook Optimo К406 Sedovich 21-05 21:04
Продам летнюю Мишлен 1856515 4шт.Новое состояние Германия kvnshik 21-05 19:22
Продам Шины Goodrich R15 Никол@ич 21-05 18:04
2 диска на волгу в идеальном состоянии INKJET 21-05 10:00
Новые литые диски R14 498! Fudo 21-05 09:48
Литые диски бу R14 5x100! Fudo 21-05 09:43
Новые летние шины r14 185х65! Fudo 21-05 09:37
R16 215x65 летняя резина бу! Fudo 21-05 09:28
куплю шины r20 на 320 для маза 2 штуки, можно новый или в очень хор сост б.у Latinos 20-05 18:44
куплю лето tttm 20-05 13:59
Новые литые диски R16 5x114, 3! Fudo 20-05 10:33
Литые диски бу R18 5105! Fudo 20-05 10:26
Новая летняя резина R14 17565! Fudo 20-05 10:24
R17 22545 летняя резина БУ! Fudo 20-05 10:17
Продам летние шины Pirelli Scorpion Verde 22560 R18 Vasechkin001 samiks
(1)
18-05 -> 19-05 14:58
Новые литые диски R16 5x139, 7! Fudo 19-05 11:25
Литые диски бу r17 5х114.3! Fudo 19-05 11:22
Новая летняя резина R14 175х65! Акция! Шиномонтаж в подарок! Fudo 19-05 11:19
Колеса в сборе БУ r19 25550 литье hyundai! Fudo 19-05 10:50
Продам оригинальные диски от BMW X6 R19. Параметры: 9x19, 5120.. Vasechkin001 @gti
(1)
18-05 -> 18-05 22:09
продам R-17 2шт 225-55 aroma757 18-05 19:21
Продам резину Pirelli 215.55 R16 5 т.р. Jeppe 18-05 15:50
Продам летнюю Йокохама 2055516 4шт Япония. kvnshik box0083
(1)
18-05 -> 18-05 15:02
Куплю комплект летних шин р14 по адекватной цене YBR125 18-05 13:21
Продам летние шины Yokohama Geolandar R18 225-60 (2шт). Vasechkin001 18-05 13:17
продам диски r15 Mogren 18-05 11:26
Новые литые диски R15 4x98! Fudo 18-05 10:55
куплю Double Star DS 828 22575R16C korobok2115813 18-05 10:52
Штампованные диски бу r15 5105 Fudo 18-05 10:50
Новая летняя резина R18 225х40! Акция! Шиномонтаж в подарок! Fudo 18-05 10:44
продам колпаки "Расинг" на 15 бу 4шт дешево Olar1963 18-05 09:59
Колеса в сборе БУ r16 21560 литье Ауди! Fudo 18-05 09:52
Шины летние, зимние, камеры R12-16 - ликвидация магазина. R17-20 под заказ 1 день. seo18 17-05 17:55
Продам колеса в сборе r14 и r16 Bot@niQ 17-05 13:22
Новые литые диски R14 4x98! Fudo 17-05 11:51
Литые диски бу r17 5х114.3! Fudo 17-05 11:48
Новая летняя резина R14 18565! Акция! Шиномонтаж в подарок! Fudo 17-05 11:44
Колеса в сборе БУ r13 17570 штампы нексия! Fudo 17-05 11:39
Летние шины 24545R18 sirius 30 17-05 09:06
Куплю резину на газель ИГАРЁК116 17-05 09:01
выкуп зимней резины, колес в день обращения деньги сразу pyatoe_koleso -=Den's=-
(1)
16-05 -> 16-05 23:38
ПРОДАМ Летнюю резину R15 19565 Nicco (1) 16-05 -> 16-05 20:12
Нужно 6-7 грузовых покрышек самовывозом, в районе хохряков, смирново серж24 16-05 13:07
Куплю всесезонку на оку r12 SashoEco 16-05 12:13
Продам остатки бу шин из Германии (комплекты, пары. одиночки ) От R-14 до 20 Фото. kasatik50 (1) 15-05 -> 15-05 19:04
Диск хром Америка на на Ниву или Витару на заднюю дверь . kasatik50 (1) 15-05 -> 15-05 19:03
продам грязевую резину hankook dynapro mt 33х12.5 диски r15 4 шт Ruslan8618 (1) 15-05 -> 15-05 13:28
продам диски слик р15 498 белые Ниггита 15-05 13:05
Продам шины Dunlop 23550 r18 97v бу Miardo 15-05 00:27
Продам 1шт. 185-60-р15 Виатти страда pavel444 14-05 18:36
Продам летнюю 1 шт. 185-60-р14 Белшина pavel444 14-05 18:35
Continental ContiEcoContact3 195*65*15 VW Golf7 Vladimir KVN 14-05 10:18
нужны шины летние 4шт 205х55 R16 VECTRA 14-05 07:25
Бу bridgestone 2356016 GraVeLL (4) 13-05 -> 13-05 18:45
Продам Cordiant Sport 2 - 185/60 R14, 2 шт. st@sik (1) 13-05 -> 13-05 12:16
Нужен колпак на логан r15 от фазы 1 silver765 Nikolas85
(1)
04-05 -> 13-05 09:03
куплю летние шины на нексию 4шт бу -=бурильщик=- carlitos17
(1)
10-05 -> 12-05 14:36
Куплю шины 4 шт.комплект R15 Рамин-авто Men's
(1)
10-05 -> 12-05 09:09
продам r15 20575 amtel planet p-2 Dipa45 12-05 00:42
Продам по дешману bridgstone r15 бу xy@H 11-05 21:01
штампы опель на летней и*г*о*р*ь 11-05 18:08
205-65 р 15 лето продам 2 шт dener (1) 11-05 -> 11-05 12:31
продам летнею резину michelin energy 19565r15 серж.18 11-05 11:39
американские колеса на ваз LEMON8 11-05 09:02
куплю 215/65 16, нокиан хакапеллиту7 1шт Ил2 dmi9215
(1)
08-05 -> 10-05 21:51
куплю штампы на ВАЗ на R14 pilot18 10-05 19:10
Barum brilliants r15 18565 silver765 (2) 09-05 -> 10-05 16:31
Куплю Резина dunlok R18 23555 st 30 Для рав 4 Нужна 1. Олег1965 10-05 15:58
Продам резину лето Бридж 22565 R17 101H бу Комяк 10-05 15:17
День добрый. Вопрос на обсуждение по обкатке дисков... Pik@chu 10-05 13:55
куплю 195 50 15 лето miha717 10-05 13:24
литые на опел оргинал Федор204 microb2010
(1)
03-05 -> 10-05 13:20
Куплю Диски R16-18 на круз 5х105 Oo 10-05 08:59
куплю шины 6.50 16r korobok2115813 10-05 08:32
АВТОРЕЗИНА ЛЕТНЯЯ новая и б/у ПОКУПКА-ПРОДАЖА-ОБМЕН-РАССРОЧКА список внутри Kolyan0180 -=Den's=-
(31)
02-10-2015 -> 09-05 21:30
Литые диски R20 2 шт. Toyota18 09-05 21:17
куплю Hankook 1955015 2шт pavelrudko9 09-05 21:14
Литые диски бу R16 5х112! Fudo bratello
(1)
09-05 -> 09-05 19:26
штатные колёса на опель и*г*о*р*ь 09-05 14:59
всмпо ланцер 9 на лете и*г*о*р*ь 09-05 14:51
Новая летняя резина r17 225х65! Fudo 09-05 10:32
Новые штампованные диски R14 4х100! Fudo 09-05 10:03
Новые литые диски r15 5х114.3! Fudo 09-05 09:50
Продам Бриджстоун 1757014 Япония.Отличное состояние. kvnshik 08-05 22:56
продам колесR16 Saucony 08-05 16:24
Диски штампы R14 4x100 (5 x 14 ET46) mda_18rus 07-05 15:19
Продам летние и зимние шины Matador R15 otaku 07-05 13:11
Шины летние, зимние, камеры R12-16 - ликвидация магазина. R17-20 под заказ 1 день. seo18 07-05 08:05
продам brillantis barum 18580 r14 85t ИжевскийЗастройщик 07-05 07:56
Продам летну резину 195 65 15 4шт TonG 06-05 22:01
ПОСТУПЛЕНИЕ ЛЕТНЕЙ Б/У АВТОРЕЗИНЫ И ДИСКОВ Kolyan0180 06-05 14:24
Летняя резина Hankook K117A 255*55*18. 109W Vladimir KVN 06-05 14:07
Continental ContiEcoContact 3 195*65*15 VW Golf 7 Vladimir KVN 06-05 14:04
продам Литье R16 pilot18 Dosya
(1)
30-04 -> 06-05 11:35
летние шины Мишлен 205/55-r16 sss63 06-05 08:21
Продам диски штампы на нексию ланос 2шт. kostik527 05-05 20:39
Колёса в сборе r16 лето для vag (шкода Октавия) DemonGS (1) 05-05 -> 05-05 20:30
куплю 19560 R15 лето комплект MorthVarg bazilio7
(1)
21-04 -> 05-05 18:31
куплю континенталь 205х55х16 66 kilometr 05-05 10:23
куплю 2 покрышки 1856014 Marsik333 kvnshik
(1)
04-05 -> 04-05 22:24
Шины Nokian Hakka c2 katana72 04-05 19:35
Диск хром Америка на на Ниву на заднюю дверь . kasatik50 04-05 14:19
Продам остатки бу шин из Германии (комплекты, пары. одиночки ) От R-14 до 20 Фото. kasatik50 04-05 14:18
Куплю Continental ContiEcoContact 3, 165/70 R14 81T 1 шт StrelokL2 04-05 13:18
Продам легкие кованые диски всмпо r15 4100 annyhylator Андрей 89120075777
(1)
09-04 -> 04-05 12:26
Куплю Bridgestone Dueler HP 23550 R18 st1x40 04-05 11:30
R19 Продам колеса ( разноширокие) на BMW.в идеале.3 шт Лонг Андрей 04-05 09:46
Продам Pirelli Р7 21555 R16 Aleks018 04-05 08:13
Диски на Peugeot katana72 03-05 21:59
куплю штампы на ВАЗ на R14 pilot18 03-05 20:35
куплю r15 vanya-r 03-05 19:35
Куплю каму 217 2 покрышки Прокс kiprxx
(2)
29-04 -> 03-05 19:34
Куплю 15565 R13 на матиз лето DeRRziLa 03-05 15:03
продам комплект колес(лето) carlitos17 03-05 09:30
Продам летние шины Dunlop sp sport max 215/45/R16 neonaft 02-05 21:13
185-65-15 Комплект лето продам alfavit 02-05 20:27
Продам пару шин 225\55 р16. oevacoom 02-05 17:42
Продам шины 215\65 р16 бу один сезон! oevacoom (1) 02-05 -> 02-05 17:21
Продам разноширокие р18 [DIMIX] 02-05 14:45
Продам шины Кама евро 228 4шт 205 75R15 Badvirus 02-05 13:45
Продам летнюю Йокохама 1956515 4шт.Япония. kvnshik 02-05 08:36
Продам диски Alcasta 17 M27 с резиной. MG1 02-05 06:43
куплю штатный колпак на весту BAKS kvnshik
(1)
01-05 -> 01-05 22:41
куплю r-15 195x65 shirik 01-05 16:13
новые колеса на ниву r16! срочно продам! ЦДД maksimov22
(2)
18-04 -> 01-05 13:55
Куплю две шины Bluetooth tosha2012
(1)
30-04 -> 01-05 12:03
Продам новые хромированые болты под ключ на 17 на литье ваз 150р/8шт Bo(Iogbka 01-05 11:27
куплю колпак на гранту Nikolas85 30-04 20:43
продам новую летнюю резину irinaten 30-04 16:09
Новые литые диски R16 5х112! Fudo 30-04 11:27
Штампованные диски бу r14 5х100! Fudo 30-04 11:17
АКЦИЯ! на новую летнию резину! Fudo 30-04 11:10
Продам летнюю Континенталь 1856014 4шт.Германия. kvnshik 30-04 11:10
Шины летние бу R16 215х65! Fudo 30-04 11:05
продам ЛЕТНИЕ шины и колЁса-комплекты, пары, штуки. r-13.14.15.17. dimka888 (3) 29-04 -> 30-04 08:55
Новая летняя резина 185 65 15 4шт TonG (1) 30-04 -> 30-04 07:39
Продам 2 колеса на ВАЗ р13 лето pavel444 30-04 07:14
Шины летние, зимние, камеры R12-16, ликвидация магазина. seo18 carlitos17
(2)
28-04 -> 29-04 22:30
продается комплект летних шин 5 штук. dunlop grandtrek at20. 265/65 r17 MrMartSAS 29-04 14:48
Куплю копплект литых дисков на Киа Рио 4шт 15R TonG 29-04 14:40
куплю мишлен 285/50 R20 1шт vladimir shashov 29-04 12:20
Литые диски бу R16 5х112! Fudo 29-04 09:59
продам колёса ваз ARS7 29-04 08:52
Куплю лето на ШНИВУ R15 IIo4aToK_KyKyPy3bl 28-04 22:27
Продам летнюю Нокиа 2454518 4шт.Отличное состояние. kvnshik 28-04 21:57
Куплю резину ЛЕТО R14 на логан. 2 шт. Новые или Б/У ИжевскийЗастройщик 28-04 21:33
Продам шины R15 2000р antonio.lomaev 28-04 21:30
куплю штампы 15" 5x112 et25 Kitekat (3) 28-04 -> 28-04 20:46
куплю 4 диска 15r, 5 на 100 на поло срочно. Мирко (2) 28-04 -> 28-04 13:24
Продам ковку 14" на ВАЗ gs 28-04 13:08
НА ЗАПАСКУ ОГРОМНЫЙ ВЫБОР ШИН и ДИСКОВ от 300 рублей Kolyan0180 28-04 12:09
ЗАЛОГ авторезины, дисков и колес Kolyan0180 28-04 12:07
ГРУЗОВЫЕ И СЕЛЬХОЗ. ШИНЫ / ДИСКИ В РАССРОЧКУ Kolyan0180 28-04 12:05
продам 205-70-14 бел. шина Артём_1 28-04 10:08
СРОЧНО куплю шины r13-14 можно на сезон по 2-4шт Kolyan0180 28-04 07:38
Продам диски на 15 Буха 27-04 22:29
Продам камеры r16 от нивы(не китайские) Compag 27-04 21:58
Проодам на Газель Кама-218 и Кама -301 АЛИР 27-04 21:57
куплю летние Шины бриджстоун 19550 р15 av1d 27-04 21:13
куплю летнюю резину R14 на ВАЗ 2114 kwadro (2) 25-04 -> 27-04 21:05
19565R15 комплект лето куплю cirax2004 27-04 16:10
куплю 185-70-14 можно не компл. Артём_1 27-04 12:06
шиномонтаж в подарок при покупке новой летней резины! Fudo 27-04 11:04
Новые литые диски R14 4х114.3! Fudo 27-04 10:55
Новые штампованные диски R14 4х100! Fudo 27-04 10:44
Литые диски БУ R15 5х114.3! Fudo 27-04 10:42
Продается Шины Continental ContiCrossContact UHP 25550R19 Amerikanec 27-04 01:01
Шины dunlopsp sport 225/50/17 лето продам Amerikanec 27-04 01:00
Продам комплект шин 185 60 R14 Yokohama лето kwadro 26-04 20:55
Летняя резина Dunlop Sport 9000 Pavel414 26-04 20:02
шины летние 2 шт Nokian R17 21555 RusHonda 26-04 15:47
Отдам б/у шины от ГАЗона за ящик пива! box06-053 (6) 20-04 -> 26-04 12:43
Продам остатки бу шин из Германии (комплекты, пары. одиночки ) От R-14 до 20 Фото. kasatik50 26-04 10:13
Диск хром Америка на на Ниву на заднюю дверь . kasatik50 26-04 10:12
Недорого бриджстоун 17565-14 4шт. kasatik50 26-04 10:11
Pirelli cinturato p1 205\55 R16 3 штуки Makasyan 26-04 09:30
ВНИМАНИЕ АКЦИЯ! "4 колеса" ОПТОВАЯ ЦЕНА Kolyan0180 (22) 03-03 -> 25-04 19:43
АКЦИЯ! плати за 3 - бери 4! Kolyan0180 25-04 19:37
ДИСКИ (штампованные и литые, колпаки, новые и бу) в ассортименте ФОТО Kolyan0180 25-04 19:33
КОЛЕСА В СБОРЕ В АССОРТИМЕНТЕ. РАССРОЧКА БЕЗ % и БЕЗ УЧАСТИЯ БАНКА Kolyan0180 25-04 19:29
Продам Continental Conti Premium Contact 3 17570 R13 - 4000-00 за комплект sta2460 25-04 17:39
шины нокия грин 2 шт 195/65 shurupan 25-04 13:38
Штампованные диски R16 5105 benderRodriguez 25-04 10:32
колпаки R13 аим3001 (1) 25-04 -> 25-04 10:23
Продам летние колеса 21560 R16, 22560 R17 (фото) Lenkapenka 25-04 10:11
Куплю литые диски R14 1004 МайкВетер 25-04 08:30
Продам резину лето Бридж 22565 R17 101H бу Комяк 25-04 07:50
Куплю грантовское литье vinni26 24-04 21:16
Куплю резину Баргузин на 16 вышкарь 24-04 15:24
Продам летнюю резину недорого БрюнеТочка 84 (2) 08-04 -> 24-04 15:06
Продам колеса летние carlitos17 24-04 14:20
резина 24565R17 (лето) brabus111 24-04 13:49
продам колёса на vw golf plus (лето). brabus111 24-04 13:46
Продам летнюю резину 1956515 МИШЛЕН 4 шт. M_Krest (1) 24-04 -> 24-04 13:15
летняя резина r 18 б.у. мене пол сезона Ниггита (2) 22-04 -> 24-04 12:59
Акция! Шиномонтаж в подарок! Fudo 24-04 11:56
Штампованные диски бу R16 5х1399.7! Fudo 24-04 11:34
Литые диски бу R18 5х112! Fudo 24-04 11:32
Шины летние БУ R16 205х55! Fudo 24-04 11:29
Куплю летние колеса в сборе на Opel Astra H Nag12 24-04 08:29
Где в Ижевске можно купить секретные гайки McGard? Антон** (6) 06-04 -> 24-04 06:51
нужен совет Андрей Андрей 24-04 00:30
Продам летнюю Кумхо 1856515 4шт.Отличное состояние. kvnshik (1) 23-04 -> 23-04 22:06
литьё на Гетц Volodya60 23-04 21:09
продам 5ть покрышек бридж 265х65х17 Volodya60 23-04 20:59
Продам 5ть новых летних колес на Паджеро, L200 Volodya60 23-04 20:32
продам HANKOOK 215/65 R16 лето б/у 3000р КОМПЛЕКТ maxx 23-04 19:25
Качественная дошиповка зимней резины ремонтными шипами, кто занимается ? OSF Dima116
(22)
23-06-2015 -> 23-04 15:44
Шины летние, зимние, камеры R12-16 - ликвидация магазина. R17-20 под заказ 1 день. seo18 dtpudm
(1)
23-04 -> 23-04 15:01
продам лето на Лансер 10 pilot18 23-04 12:38
продам лето на Матиз pilot18 23-04 12:36
Продаётся летняя резина на дисках (4шт.) 225\65 R17 Dasha 2008 23-04 11:24
куплю колесан на солярис zepad0410 22-04 23:44
Продам 1шт. 185-60-р15 Виатти страда pavel444 22-04 12:11
Продам 3шт. лето 185-60-р15 дешево pavel444 22-04 12:09
Где взять спецключ для секретных болтов на опель корса? katerina_happy 22-04 11:22
шиномонтаж в подарок при покупке новой летней резины! Fudo 22-04 11:12
Литые диски бу R14 4х98! Fudo 22-04 11:03
Новые литые диски MEGAMI R14 4х98! Fudo 22-04 11:01
Новые штампованные диски R15 4х100! Fudo 22-04 10:56
Продам колеса на логан Marsel-pvs (2) 19-04 -> 22-04 08:09
Продам 18570 R14 2 шт. Pashka626 21-04 14:02
Продам 4 колеса в сборе. sanek7 (2) 21-04 -> 21-04 14:00
Продам 18565 R15 2 шт. Pashka626 21-04 13:47
Продам шины Pirelli 20555 R16 Pashka626 21-04 11:34
Продам шины Cordiant 20560 R16 Pashka626 21-04 11:31
Акция! Шиномонтаж в подарок! Fudo 21-04 11:21
Куплю колёса на Тойоту LK-200 aroma757 (1) 21-04 -> 21-04 11:16
Штампованные диски бу r15 5х110! Fudo 21-04 11:10
Новые литые диски R18 5х114.3! Fudo 21-04 11:08
продам лето 26560R18 бу 1 сезон vic-18 21-04 11:01
Новые штампованные диски R16 5х139.7! Fudo 21-04 10:39
куплю резину на Дукато Lenya 21-04 10:03
куплю летнюю шину 17570 R 14 или 18565 R 14 мари@ка serega.s.76
(1)
18-04 -> 20-04 23:13
магазин шин с нормальными консультантами посоветуйте o_v_e_r Viktoriya456
(4)
05-10-2016 -> 20-04 23:00
Продам летнюю Пирелли 2056016 4шт. kvnshik blok-yzi
(1)
29-03 -> 20-04 21:23
Куплю R14 vanya-r 20-04 20:28
Продам летнюю резину 2257516 andrey314 20-04 19:17
Летние колеса акцент 4100 Alecsandra 20-04 18:48
Продам новую шину виатти R15 Dracer77 20-04 18:23
Продам диски BBS "17 (5х120) на лете 14000р! Веселый Пиротехник 20-04 15:20
Куплю резину 19555 R16 лето LoGaNN 20-04 14:16
Штампованные диски РиоСолярис R15 бу ramax 20-04 13:37
Продам колпаки Ниссан оригинал(2 комплекта)(фото) P0mart 20-04 12:18
Продам Штампы R14 4*114.3 P0mart 20-04 12:15
АКЦИЯ! на новую летнию резину! Fudo 20-04 11:49
Летняя резина БУ R16 205х60! Fudo 20-04 11:36
Новые литые диски R14 5х100! Fudo 20-04 11:22
Новые штампованные диски R15 4х100! Fudo 20-04 11:17
Продам колеса 2шт. 17565 R14 VoVaN1986 20-04 09:19
Куплю комплект летних шин 165-70-R13 Онегин 19-04 19:33
лето 205, 60 р15 и*г*о*р*ь 19-04 18:27
Шины лето бу Dunlop SP Sport 7000 225/55 R18 ГК Премьер 19-04 16:11
Куплю покрышку 2056016 Pearl 19-04 15:52
Куплю бу литье слепой бродяга 19-04 14:12
Шины 235/55 R20 Bridgestone Dimarik089 19-04 11:37
шиномонтаж в подарок при покупке новой летней резины! Fudo 19-04 11:35
Летняя резина бу R14 185х60! Fudo 19-04 11:29
Литые диски бу R14 4х98! Fudo 19-04 11:27
Новые литые диски r16 5х114.3 Fudo 19-04 11:22
Новые летние шины R17 225х50! Fudo 18-04 14:36
Шины летние бу R16 215х65! Fudo 18-04 14:28
куплю разварки 4-98 Радмир2016 18-04 14:21
Продам летнюю Йокохама 2156516 4шт.Япония. kvnshik P@fk@
(2)
14-04 -> 18-04 13:58
Новые литые диски R14 4x100! Fudo 18-04 13:44
Новые штампованные диски R15 5х100! Fudo 18-04 13:41
Продам новую резину Kumho Solus 18565 R15 лето cinus77 Леонидыч84
(1)
18-04 -> 18-04 12:30
резину на квадроцикл бу куплю Р12 Gyry1 18-04 10:46
запаска geely mk cross 66 kilometr 18-04 08:55
ВЫКУП ЛЕТНИХ ШИН, КОЛЕС, а также ОБМЕН старых на новые Kolyan0180 (2) 17-04 -> 18-04 08:10
Куплю 2155516 1шт. Зима МайкВетер kediv1
(3)
08-04 -> 17-04 22:18
ПРОДАМ r16 205-55 летние шины МИШЛЕН в состоянии новых 4шт цена 12500 рублей Kolyan0180 17-04 20:11
у кого avensis 2007-2008? Прошу помочь. Dima_333 @gti
(10)
14-04 -> 17-04 18:59
Разварки на ОКУ надо Gyry1 17-04 16:44
колёса Бриджстоун. R18, 22555 BalibSerg 17-04 15:50
Шины летние, зимние, камеры R12-16 - ликвидация магазина seo18 17-04 15:40
Куплю литье R16, 6, 5 5139.7 ЕТ40 SamodelKing 17-04 15:12
Продам КАМА-217 175/65R14 4 шт бу brigadir 24 17-04 15:10
Продам летнюю резину R16 в ассортименте Leha-na-izhe 17-04 13:02
Недорого бриджстоун 17565-14 4шт. kasatik50 17-04 11:56
Диск хром Америка на на Ниву на заднюю дверь . kasatik50 17-04 11:55
Продам остатки бу шин из Германии (комплекты, пары. одиночки ) От R-14 до 20 Фото. kasatik50 17-04 11:54
Продам Бриджстоун 265х60хR18 4 колеса цена по предложению. Finougor 17-04 11:45
Продам летние Kumho Solus kh17 185х65х15 4 б.у 1 новое domashniy 17-04 10:56
Шины новые летние R15 195х60! Fudo 17-04 10:16
Шины летние бу r14 185х60! Fudo 17-04 10:06
Новые литые диски R16 5х139.7 Fudo 17-04 10:02
Новые штампованные диски R16 5х139.7 Fudo 17-04 09:58
продам лето р17 MERIN777 AnnaAD
(2)
14-04 -> 17-04 00:21
Продам летнюю Континенталь 2256018 4шт.Отличное состояние. kvnshik Predator01
(1)
16-04 -> 16-04 23:58
колпаки на октавию r-15 оригинал (фото) draf 16-04 22:20
куплю резину на ниву шеви vaz** 15-04 19:58
летние колеса Kumho 1856014 на нексию аим3001 15-04 13:43
продаётся летняя резина на дисках (4шт.) 22565 r17 dueler hp sport 102h bridgestone Dasha 2008 15-04 12:41
Новые литые диски R16 5х114.3! Fudo 15-04 10:23
Новые штампованные диски r15 4х114.3! Fudo 15-04 10:17
Продам Кама Евро R13 175/70 4 шт (лето) Shina007 14-04 21:37
КОЛЕСА В СБОРЕ В АССОРТИМЕНТЕ. РАССРОЧКА БЕЗ % и БЕЗ УЧАСТИЯ БАНКА. Kolyan0180 (8) 04-04 -> 14-04 19:18
Продам диски R14 реплика на Тойоту shasernik 14-04 18:10
Куплю резину Баргузин вышкарь 14-04 16:12
Продам литой диск на Форд фокус 2 R16 shasernik 14-04 15:51
Продам 195 на 65 р15 зима 2 шт ЮрийАлексеевич 14-04 13:54
Продам колеса в сборе кама 217 175-65 R-14 и амтел планет 2р175-65 R14 ЗиЛ 14-04 13:18
продам лето R15C усиленная новая MERIN777 14-04 12:59
Продам колеса на НИВУ R-16 новые! ЦДД (1) 14-04 -> 14-04 12:24
продам зимнюю резину гиславед R16 215 65 Радик102 (1) 14-04 -> 14-04 10:49
Куплю шину 7.50r16 rail 14-04 10:37
Новая летняя резина R16 205х55! Fudo 14-04 09:53
Новые литые диски R15 4х100! Fudo 14-04 09:45
Новые штампованные диски R16 4х108! Fudo 14-04 09:34
Шины летние бу R16 215х65! Fudo 14-04 09:27
Шины летние, зимние, камеры R12-16 - ликвидация магазина seo18 Dimka719
(1)
08-04 -> 14-04 08:32
Куплю диски литые r16 5/114.3 ет50 владислав2003 Predator01
(1)
13-04 -> 13-04 23:36
Куплю декоративные колпаки на Гетц ELENA M 13-04 15:04
продам HANKOOK 21565 R16 лето бу maxx (1) 04-04 -> 13-04 13:51
Продам две летние шины r14 Lenar mc 13-04 11:31
продам диски 16 4114, 3 Леонидыч84 13-04 09:03
куплю летнюю резину 1856515 mrakoff! 12-04 20:18
Куплю bridgestone dueler hp 215 65 16 gypar 12-04 19:24
Продам лето 22545R17 shasernik 12-04 15:26
Continental ContiEcoContact3 195*65*15 VW Golf7 Vladimir KVN 12-04 10:27
Новые летние шины R16 205х45! Fudo 12-04 10:15
Продам шины летние 17R 225/65 Бина07 12-04 10:10
Литые диски бу R16 5х112! Fudo 12-04 10:04
Новые литые диски R14 4x100! Fudo 12-04 09:53
Новые штампованные диски Rr15 5х114.3! Fudo 12-04 09:47
Продам резину Кама 310 yunica (1) 12-04 -> 12-04 09:38
продам лето 2шт.17565 VoVaN1986 12-04 09:07
Продам лето с дисками р14 daniil1 12-04 08:40
Куплю Bridgestone R15 UrichMan 12-04 08:38
Продам летнюю Ханкук 2156516 4шт kvnshik Ромулян
(2)
20-03 -> 11-04 20:36
Продам литье на Гранту Р14 4шт.Отличное состояние. kvnshik (3) 07-04 -> 11-04 20:17
Колеса R13 nickX 11-04 16:28
Недорого бриджстоун 17565-14 4шт. kasatik50 11-04 15:28
Диск хром Америка на на Ниву на заднюю дверь . kasatik50 11-04 15:27
Продам остатки бу шин из Германии (комплекты, пары. одиночки ) От R-14 до 20 Фото. kasatik50 11-04 15:26
Продам хакку 8 den118 11-04 15:25
Продам новые шины Kumho Solus KH 17 . 185 /65 R15 лето cinus77 11-04 13:48
Продам комплект летних шин Hankook 185/55 R15 va5ka 11-04 12:12
Новые литые диски R16 5х114.3! Fudo 11-04 11:31
Литые диски БУ R16 5х150 ЕТ60 dia110! Fudo 11-04 11:14
Новые летние шины R15 185х65! Fudo 11-04 11:11
Шины летние бу r14 185х60! Fudo 11-04 10:48
куплю резину лето 18560-6514 на все руки мастер 11-04 09:53
куплю резину лето на все руки мастер 11-04 09:53
Продам колпаки Nissan R16 Toxep 11-04 09:22
Летние колеса р13, акцентгетснексияланос и тд Alecsandra на все руки мастер
(1)
08-04 -> 11-04 08:56
Колеса r15 4x100 vasek_nah 10-04 21:30
Куплю новые литые диски на Дастер GRust владислав2003
(3)
06-04 -> 10-04 21:23
Куплю Yokohama dB Decibel E70 21555 R17 94V Toyota18 10-04 20:54
Шины зимние NORDMAN 20570 R15 для бездорожья Toyota18 10-04 20:51
Продам оригинальные диски на Audi A4 allroad shasernik 10-04 14:00
Обмен смартфон на колеса для ВАЗ. Mercedes E212 10-04 13:52
Продам Кама Евро R13 175/70 4 шт (лето) Shina007 10-04 13:00
Продам комплект Amtel Planet R13 175/70 4 шт (лето) Shina007 10-04 12:53
Продам литые диски R16 5x114, 3 (тойота королла) Sergo_82 10-04 10:00
продам Cordiant Sport 2 Мак_дак 10-04 08:46
куплю Литые диски R15 oeaiv 09-04 23:30
Колеса всборе R17 хром 12000 Jipper (2) 09-04 -> 09-04 21:06
Комплект кованных дисков с резиной R 14. 4х98 fax 666 (2) 09-04 -> 09-04 14:12
Колеса летние штампы KIA RIO Kumho pupi 09-04 11:30
Продам колёса на BMW Х5, Х6 Michelin sovushka0709 09-04 10:53
Продам 2 покрышки на Газель konstans 09-04 08:03
продам 2 резины 185-65-15 Артём_1 09-04 06:51
куплю 20565 R15 M@X 9ov 08-04 23:48
продам на ваз tttm askot
(1)
05-04 -> 08-04 21:26
у кого есть колпачки ВСМПО на продажу? [DIMIX] (2) 08-04 -> 08-04 19:53
продам 2155517 лето 2шт Леонидыч84 08-04 18:55
Dunlop 21560r17 добрый-злой (1) 08-04 -> 08-04 17:55
Колеса на лето р13, акцентгетснексия и др Alecsandra 08-04 16:32
продам резину лето р15-195-50 Ниггита 08-04 15:05
Диски 14" литые с Калины fat tony 08-04 11:26
Летняя резина новая R17 225х65! Fudo 08-04 10:15
Литые диски БУ R15 5х114.3! Fudo 08-04 10:08
Новые литые диски R15 4х100! Fudo 08-04 10:06
Новые штампованные диски R15 5х114.3! Fudo 08-04 10:03
кому кому толко одному Furocelin МайкВетер
(1)
27-03 -> 08-04 07:08
Продам колеса на ниву Баргузин 4х4 ТАК 07-04 23:51
Goodyer Grand Prix S 175SR14 распи*дяй (2) 07-04 -> 07-04 21:18
Продам лето R 15 18565 Мишлен энеджи 4шт AL-X-DR (2) 06-04 -> 07-04 17:57
Куплю одну шину dunlop sp touring t1 17565 r15. selcov 07-04 13:35
Шины летние бу r16 225х70! Fudo 07-04 09:46
Новые литые диски R14 4x100! Fudo 07-04 09:42
Новые штампованные диски R14 4х100! Fudo 07-04 09:38
Продам летнюю Ханкук 1955515 4шт. kvnshik 07-04 09:22
Продам диски R 15 Nitro20 y-355 (4х114, 3) 6, 5J15; ЕТ40; D73, 1. Reims 06-04 21:11
Породам на газель. Кама-218 АЛИР 06-04 20:51
Куплю на Логан колеса летние R14 SanSei (1) 06-04 -> 06-04 19:27
Куплю лето R18 225 45! Beyzel 06-04 18:50
Продам комплект летних шин Hankook 185/55 R15 va5ka 06-04 13:07
R-14 185x60 комплект draf 06-04 11:55
Продам шины Nokian Rotiiva AT 24575 R16 111S Бандерос 06-04 11:15
Новая летняя резина Dunlop Grandtrek ST30 235-55-18 - 4 шт rm 06-04 09:55
Продам 2 покрышки на Газель konstans 06-04 06:41
выкуп летней резины, колес в день обращения деньги сразу pyatoe_koleso serega.s.76
(1)
05-04 -> 05-04 21:21
литые оригинальные диски на фольксваген тигуан RebeL diesel 05-04 10:33
Литые диски бу R16 5х120! Fudo 05-04 10:04
Новые литые диски R14 5х100! Fudo 05-04 10:03
Новые штампованные диски R15 4х100! Fudo 05-04 09:56
r15 195-65 мишлен хм2 летние шины в состояние новых 4шт продам Kolyan0180 (2) 04-04 -> 04-04 18:26
Продам летнюю Ханкук 1956515 4шт. kvnshik babkinsky
(1)
28-03 -> 04-04 18:01
Продам 3шт. лето 185-60-р15 дешево pavel444 04-04 16:39
на запаску огромный выбор шин и дисков от 300 рублей Kolyan0180 04-04 14:02
ОГРОМНЫЙ выбор бу дисков Kolyan0180 04-04 14:00
лето campiro 205, 60 r15 и*г*о*р*ь 04-04 08:51
Куплю летнюю шину газпром SRG18RUSSS20
(1)
03-04 -> 03-04 16:53
Продам остатки бу шин из Германии (комплекты, пары. одиночки ) От R-14 до 20 Фото. kasatik50 03-04 15:29
Диск хром Америка на на Ниву на заднюю дверь . kasatik50 03-04 15:27
Недорого бриджстоун 175/65-14 4шт. kasatik50 (1) 03-04 -> 03-04 15:23
R-14 несколько комплектов draf (1) 03-04 -> 03-04 14:09
резина лето R14 комплекты пары одиночки vladimir shashov 03-04 13:10
Продам бу летнюю резину R14 vWv (2) 23-01 -> 03-04 13:07
резина лето R13 комплекты пары одиночки vladimir shashov 03-04 12:36
Продам летние колеса Yokohama 185/60 r13 ваз RST5 03-04 07:42
Шины летние, зимние, камеры R12-16 - ликвидация магазина seo18 02-04 17:04
Лето 16" на литье слегка бу Смит и Вессон 02-04 16:28
Продам комплект летней резины - kumho solus kh17 185*65 r15 Etan (5) 02-03 -> 02-04 14:13
Оригинальные диски vw r15 зимняя резина мишлен. Diger.94 (1) 02-04 -> 02-04 11:24
Новая летняя резина R18 225х40 Fudo 02-04 10:18
Шины летние бу r16 225х70! Fudo 02-04 10:09
Новые литые диски R15 4х114.3! Fudo 02-04 10:03
Новые штампованные диски R16 4х108! Fudo 02-04 10:00
Продам 2 покрышки на Газель konstans 02-04 07:35
Продам летнюю Бриджстоун 1756514 4шт. kvnshik 01-04 22:31
диски r 16. toyota avensis. subaru. герой асфальта (1) 01-04 -> 01-04 22:31
куплю шины летние R16 23560 или 21570 Doosan 01-04 21:17
Пирелли 1956515 shyrik1110 (2) 01-04 -> 01-04 18:55
Новые летние шины R14C 195! Fudo 01-04 12:10
Шины летние бу R14 175x65! Fudo 01-04 12:04
Продам 3шт. лето 185-60-р15 дешево pavel444 01-04 11:43
Литые диски БУ R15 5x120! Fudo 01-04 10:55
Новые литые диски R15 5х105! Fudo 01-04 10:52
Летние новые шины! PandaServis 01-04 00:16
Продам Шины Triangle 245х40 R18 dormix PandaServis
(1)
18-03 -> 01-04 00:05
куплю литьё 5112 Павел 24 PandaServis
(1)
21-03 -> 31-03 23:47
Меняю 21565 R15 на 19565 R15 VitaR PandaServis
(1)
22-03 -> 31-03 23:43
выкуп летней резины, колес в день обращения деньги сразу pyatoe_koleso Densmakar
(1)
27-03 -> 31-03 16:54
Продам комплект летних шин Hankook 185/55 R15 va5ka 31-03 11:28
продаётся летняя резина на дисках (4шт.) 22565 r17 dueler hp sport 102h bridgestone Dasha 2008 31-03 10:49
Новые шины летние по АКЦИИ R15 205x65! Fudo 31-03 10:34
Продам Литье на Санг-Йонг Р16 4шт.5130 Вотличном состоянии. kvnshik (1) 31-03 -> 31-03 10:25
куплю лето р13 на Ваз Qrient 31-03 10:20
Шины летние бу R17 215х70! Fudo 31-03 10:07
Литые диски бу R15 5х108! Fudo 31-03 10:02
Покупка, продажа шин и дисков. PandaServis 31-03 09:45
летние шины на дисках 21560 R16 - 4 шт - 5000 р ЮричМ PandaServis
(1)
29-03 -> 31-03 09:44
Новые литые диски r15 4х98! Fudo 31-03 09:43
Продам резину Кама Евро 700 руб/шт sfk 30-03 22:51
Продам летние шины Кама Евро 236! Fiechka 30-03 12:37
шины для квадроциклов новые в ассортименте Kolyan0180 30-03 09:30
колеса в сборе в ассортименте. рассрочка без % и без участия банка. Kolyan0180 30-03 09:28
выкуп авторезины дисков и колес Kolyan0180 30-03 09:26
болты, гайки, камеры, секретки, уст.кольца, мех.накидки и многое другое... Kolyan0180 30-03 09:25
Куплю покрышку Continental Conti Premium Contact2 215-55 R17 Men's 30-03 08:48
Продам 2 покрышки на Газель konstans 30-03 06:48
ЗАЛОГ авторезины, дисков и колес Kolyan0180 29-03 13:01
куплю диски r15 lay4er5 29-03 12:01
Новые летние шины R14 175x70 по акции! Fudo 29-03 11:58
Литые диски БУ r18 5x114.3! Fudo 29-03 11:15
Новые литые диски R14 4x100! Fudo 29-03 10:45
Новые штампованные диски на ВАЗ R15 Fudo 29-03 10:41
Куплю резину Касатик88 28-03 21:18
Куплю летний комплект 195(185)55(60)15 на дисках 4114, 3 R15 SLavnik 28-03 21:02
Купим литые диски. Dvadomkrata 28-03 18:19
Выкуп шин и дисков. Dvadomkrata 28-03 18:16
шины, диски, колеса. купля, продажа. аргоно-дуговая сварка. Dvadomkrata 28-03 18:13
продам авторезину kumho radial 798 22570 R16 -1 шт -1500 р. myrava 28-03 14:20
Продам 4 диска 6xR15 5x105 anasteisha1402 (1) 28-03 -> 28-03 14:19
Литые диски БУ R15 5x114.3 et 45 dia60.1! Fudo 28-03 10:43
Новые литые диски R15 5x100 et 38 dia 57.1! Fudo 28-03 10:35
продам шину R-16 / 215-65 новую aroma757 (2) 28-03 -> 28-03 10:23
продам лето R-17 / 225-55 2шт БУ aroma757 (2) 28-03 -> 28-03 10:19
Шины летние бу R15 195x55! Fudo 28-03 10:19
Шины летние новые R14 185х65! Fudo 28-03 10:13
Продам диски на матиз R13 комплект (штампованные) Shina007 27-03 17:19
Продам goodyear R16 205/55 4 шт (лето) Shina007 Kolyan0180
(1)
25-03 -> 27-03 17:13
Шины летние бу R15 195x50! Fudo 27-03 16:24



Страницы : 1 2 3 4 5 6 7 8 9 10

 

форумы izhevsk.ru

© ООО "Марк" 2016
 
Интернет-провайдер КК МАРК-ИТТ